sensor_id;sensor_type;location;lat;lon;timestamp;P1;durP1;ratioP1;P2;durP2;ratioP2
63807;SDS011;49961;43.970;22.868;2022-08-04T00:01:07;8.43;;;3.27;;
63807;SDS011;49961;43.970;22.868;2022-08-04T00:04:02;6.30;;;3.03;;
63807;SDS011;49961;43.970;22.868;2022-08-04T00:06:42;5.40;;;2.90;;
63807;SDS011;49961;43.970;22.868;2022-08-04T00:07:48;6.03;;;3.03;;
63807;SDS011;49961;43.970;22.868;2022-08-04T00:08:55;2.97;;;2.50;;
63807;SDS011;49961;43.970;22.868;2022-08-04T00:10:01;4.93;;;2.53;;
63807;SDS011;49961;43.970;22.868;2022-08-04T00:11:05;5.87;;;2.70;;
63807;SDS011;49961;43.970;22.868;2022-08-04T00:12:08;8.63;;;3.33;;
63807;SDS011;49961;43.970;22.868;2022-08-04T00:13:11;3.90;;;3.00;;
63807;SDS011;49961;43.970;22.868;2022-08-04T00:14:13;4.93;;;2.73;;
63807;SDS011;49961;43.970;22.868;2022-08-04T00:15:15;5.00;;;2.93;;
63807;SDS011;49961;43.970;22.868;2022-08-04T00:16:17;4.47;;;2.53;;
63807;SDS011;49961;43.970;22.868;2022-08-04T00:17:19;5.03;;;2.83;;
63807;SDS011;49961;43.970;22.868;2022-08-04T00:18:25;5.10;;;2.63;;
63807;SDS011;49961;43.970;22.868;2022-08-04T00:19:39;4.90;;;2.70;;
63807;SDS011;49961;43.970;22.868;2022-08-04T00:20:43;4.57;;;2.70;;
63807;SDS011;49961;43.970;22.868;2022-08-04T00:21:50;5.47;;;2.77;;
63807;SDS011;49961;43.970;22.868;2022-08-04T00:22:59;4.80;;;2.80;;
63807;SDS011;49961;43.970;22.868;2022-08-04T00:24:01;4.90;;;2.70;;
63807;SDS011;49961;43.970;22.868;2022-08-04T00:25:02;6.50;;;2.73;;
63807;SDS011;49961;43.970;22.868;2022-08-04T00:26:04;3.10;;;2.60;;
63807;SDS011;49961;43.970;22.868;2022-08-04T00:27:05;5.97;;;2.70;;
63807;SDS011;49961;43.970;22.868;2022-08-04T00:28:07;5.00;;;2.60;;
63807;SDS011;49961;43.970;22.868;2022-08-04T00:29:08;4.83;;;2.80;;
63807;SDS011;49961;43.970;22.868;2022-08-04T00:30:09;4.67;;;2.97;;
63807;SDS011;49961;43.970;22.868;2022-08-04T00:31:10;6.30;;;2.60;;
63807;SDS011;49961;43.970;22.868;2022-08-04T00:32:11;3.97;;;2.80;;
63807;SDS011;49961;43.970;22.868;2022-08-04T00:33:12;4.40;;;2.90;;
63807;SDS011;49961;43.970;22.868;2022-08-04T00:34:18;8.23;;;2.70;;
63807;SDS011;49961;43.970;22.868;2022-08-04T00:35:18;4.67;;;2.87;;
63807;SDS011;49961;43.970;22.868;2022-08-04T00:36:19;4.90;;;2.60;;
63807;SDS011;49961;43.970;22.868;2022-08-04T00:37:21;3.53;;;2.70;;
63807;SDS011;49961;43.970;22.868;2022-08-04T00:38:22;3.97;;;2.63;;
63807;SDS011;49961;43.970;22.868;2022-08-04T00:39:24;5.43;;;2.83;;
63807;SDS011;49961;43.970;22.868;2022-08-04T00:40:31;3.57;;;2.47;;
63807;SDS011;49961;43.970;22.868;2022-08-04T00:43:12;6.80;;;2.87;;
63807;SDS011;49961;43.970;22.868;2022-08-04T00:51:04;6.33;;;2.47;;
63807;SDS011;49961;43.970;22.868;2022-08-04T00:53:32;6.00;;;2.80;;
63807;SDS011;49961;43.970;22.868;2022-08-04T00:58:05;4.87;;;2.67;;
63807;SDS011;49961;43.970;22.868;2022-08-04T01:00:47;3.43;;;2.40;;
63807;SDS011;49961;43.970;22.868;2022-08-04T01:03:13;6.47;;;2.70;;
63807;SDS011;49961;43.970;22.868;2022-08-04T01:04:39;3.70;;;2.50;;
63807;SDS011;49961;43.970;22.868;2022-08-04T01:06:17;5.70;;;2.73;;
63807;SDS011;49961;43.970;22.868;2022-08-04T01:11:52;3.77;;;2.80;;
63807;SDS011;49961;43.970;22.868;2022-08-04T01:16:30;4.57;;;3.07;;
63807;SDS011;49961;43.970;22.868;2022-08-04T01:17:52;5.00;;;2.73;;
63807;SDS011;49961;43.970;22.868;2022-08-04T01:19:01;3.80;;;2.87;;
63807;SDS011;49961;43.970;22.868;2022-08-04T01:20:10;5.47;;;2.90;;
63807;SDS011;49961;43.970;22.868;2022-08-04T01:29:58;5.50;;;2.87;;
63807;SDS011;49961;43.970;22.868;2022-08-04T01:31:01;5.97;;;3.20;;
63807;SDS011;49961;43.970;22.868;2022-08-04T01:33:16;4.70;;;3.13;;
63807;SDS011;49961;43.970;22.868;2022-08-04T01:34:19;5.07;;;2.83;;
63807;SDS011;49961;43.970;22.868;2022-08-04T01:35:23;4.23;;;2.70;;
63807;SDS011;49961;43.970;22.868;2022-08-04T01:36:27;5.57;;;2.90;;
63807;SDS011;49961;43.970;22.868;2022-08-04T01:39:04;4.30;;;2.80;;
63807;SDS011;49961;43.970;22.868;2022-08-04T01:40:27;3.50;;;2.60;;
63807;SDS011;49961;43.970;22.868;2022-08-04T01:41:28;6.50;;;3.00;;
63807;SDS011;49961;43.970;22.868;2022-08-04T01:42:30;5.73;;;2.73;;
63807;SDS011;49961;43.970;22.868;2022-08-04T01:43:33;4.93;;;2.60;;
63807;SDS011;49961;43.970;22.868;2022-08-04T01:44:37;7.50;;;3.13;;
63807;SDS011;49961;43.970;22.868;2022-08-04T01:45:40;4.97;;;2.77;;
63807;SDS011;49961;43.970;22.868;2022-08-04T01:46:40;5.17;;;2.70;;
63807;SDS011;49961;43.970;22.868;2022-08-04T01:47:42;4.00;;;2.50;;
63807;SDS011;49961;43.970;22.868;2022-08-04T01:48:51;5.17;;;2.80;;
63807;SDS011;49961;43.970;22.868;2022-08-04T01:49:53;3.60;;;2.50;;
63807;SDS011;49961;43.970;22.868;2022-08-04T01:51:03;5.50;;;2.67;;
63807;SDS011;49961;43.970;22.868;2022-08-04T01:52:06;5.10;;;2.63;;
63807;SDS011;49961;43.970;22.868;2022-08-04T01:53:08;3.73;;;2.63;;
63807;SDS011;49961;43.970;22.868;2022-08-04T01:54:09;6.43;;;2.93;;
63807;SDS011;49961;43.970;22.868;2022-08-04T01:55:14;7.43;;;2.77;;
63807;SDS011;49961;43.970;22.868;2022-08-04T01:56:17;4.53;;;2.73;;
63807;SDS011;49961;43.970;22.868;2022-08-04T01:57:20;6.87;;;3.33;;
63807;SDS011;49961;43.970;22.868;2022-08-04T01:58:24;6.47;;;2.40;;
63807;SDS011;49961;43.970;22.868;2022-08-04T01:59:28;4.97;;;2.70;;
63807;SDS011;49961;43.970;22.868;2022-08-04T02:00:30;5.27;;;2.77;;
63807;SDS011;49961;43.970;22.868;2022-08-04T02:01:34;5.03;;;2.63;;
63807;SDS011;49961;43.970;22.868;2022-08-04T02:02:35;4.33;;;2.70;;
63807;SDS011;49961;43.970;22.868;2022-08-04T02:03:40;3.00;;;2.70;;
63807;SDS011;49961;43.970;22.868;2022-08-04T02:04:42;3.67;;;2.40;;
63807;SDS011;49961;43.970;22.868;2022-08-04T02:05:43;4.50;;;2.73;;
63807;SDS011;49961;43.970;22.868;2022-08-04T02:08:33;4.80;;;2.53;;
63807;SDS011;49961;43.970;22.868;2022-08-04T02:11:13;7.23;;;2.93;;
63807;SDS011;49961;43.970;22.868;2022-08-04T02:13:53;3.30;;;2.33;;
63807;SDS011;49961;43.970;22.868;2022-08-04T02:15:02;3.87;;;2.40;;
63807;SDS011;49961;43.970;22.868;2022-08-04T02:19:31;6.30;;;2.83;;
63807;SDS011;49961;43.970;22.868;2022-08-04T02:20:37;4.80;;;2.53;;
63807;SDS011;49961;43.970;22.868;2022-08-04T02:21:38;4.20;;;2.60;;
63807;SDS011;49961;43.970;22.868;2022-08-04T02:22:50;4.20;;;2.47;;
63807;SDS011;49961;43.970;22.868;2022-08-04T02:24:06;5.00;;;2.53;;
63807;SDS011;49961;43.970;22.868;2022-08-04T02:25:09;5.87;;;2.60;;
63807;SDS011;49961;43.970;22.868;2022-08-04T02:26:13;3.03;;;2.37;;
63807;SDS011;49961;43.970;22.868;2022-08-04T02:27:15;4.70;;;2.80;;
63807;SDS011;49961;43.970;22.868;2022-08-04T02:28:24;3.27;;;2.30;;
63807;SDS011;49961;43.970;22.868;2022-08-04T02:30:14;3.83;;;2.60;;
63807;SDS011;49961;43.970;22.868;2022-08-04T02:32:37;4.30;;;2.83;;
63807;SDS011;49961;43.970;22.868;2022-08-04T02:33:42;3.63;;;2.60;;
63807;SDS011;49961;43.970;22.868;2022-08-04T02:34:53;4.33;;;2.83;;
63807;SDS011;49961;43.970;22.868;2022-08-04T02:36:03;3.63;;;2.43;;
63807;SDS011;49961;43.970;22.868;2022-08-04T02:37:05;3.20;;;2.50;;
63807;SDS011;49961;43.970;22.868;2022-08-04T02:38:20;4.27;;;2.67;;
63807;SDS011;49961;43.970;22.868;2022-08-04T02:39:29;5.30;;;2.80;;
63807;SDS011;49961;43.970;22.868;2022-08-04T02:40:32;4.73;;;3.07;;
63807;SDS011;49961;43.970;22.868;2022-08-04T02:41:34;4.40;;;2.70;;
63807;SDS011;49961;43.970;22.868;2022-08-04T02:42:35;5.13;;;2.60;;
63807;SDS011;49961;43.970;22.868;2022-08-04T02:43:37;4.10;;;2.70;;
63807;SDS011;49961;43.970;22.868;2022-08-04T02:44:41;3.83;;;2.80;;
63807;SDS011;49961;43.970;22.868;2022-08-04T02:45:44;4.60;;;2.70;;
63807;SDS011;49961;43.970;22.868;2022-08-04T02:46:47;4.60;;;2.47;;
63807;SDS011;49961;43.970;22.868;2022-08-04T02:47:51;3.93;;;2.60;;
63807;SDS011;49961;43.970;22.868;2022-08-04T02:48:54;7.60;;;3.10;;
63807;SDS011;49961;43.970;22.868;2022-08-04T02:49:56;4.87;;;2.67;;
63807;SDS011;49961;43.970;22.868;2022-08-04T02:50:57;3.67;;;2.70;;
63807;SDS011;49961;43.970;22.868;2022-08-04T02:52:00;5.67;;;2.63;;
63807;SDS011;49961;43.970;22.868;2022-08-04T02:53:02;5.63;;;2.77;;
63807;SDS011;49961;43.970;22.868;2022-08-04T02:54:04;5.93;;;3.03;;
63807;SDS011;49961;43.970;22.868;2022-08-04T02:55:05;8.03;;;3.50;;
63807;SDS011;49961;43.970;22.868;2022-08-04T02:56:10;4.70;;;2.87;;
63807;SDS011;49961;43.970;22.868;2022-08-04T02:57:14;6.30;;;2.80;;
63807;SDS011;49961;43.970;22.868;2022-08-04T02:58:18;4.90;;;2.77;;
63807;SDS011;49961;43.970;22.868;2022-08-04T02:59:22;6.27;;;2.77;;
63807;SDS011;49961;43.970;22.868;2022-08-04T03:00:25;4.90;;;2.60;;
63807;SDS011;49961;43.970;22.868;2022-08-04T03:01:26;4.27;;;2.93;;
63807;SDS011;49961;43.970;22.868;2022-08-04T03:02:28;3.83;;;2.77;;
63807;SDS011;49961;43.970;22.868;2022-08-04T03:04:01;3.93;;;2.70;;
63807;SDS011;49961;43.970;22.868;2022-08-04T03:05:40;4.27;;;2.60;;
63807;SDS011;49961;43.970;22.868;2022-08-04T03:09:25;5.47;;;2.70;;
63807;SDS011;49961;43.970;22.868;2022-08-04T03:13:37;5.10;;;2.77;;
63807;SDS011;49961;43.970;22.868;2022-08-04T03:19:00;6.70;;;3.10;;
63807;SDS011;49961;43.970;22.868;2022-08-04T03:21:43;8.17;;;3.20;;
63807;SDS011;49961;43.970;22.868;2022-08-04T03:45:20;10.50;;;4.30;;
63807;SDS011;49961;43.970;22.868;2022-08-04T03:46:40;13.33;;;3.40;;
63807;SDS011;49961;43.970;22.868;2022-08-04T03:49:35;4.53;;;2.70;;
63807;SDS011;49961;43.970;22.868;2022-08-04T03:51:05;5.20;;;2.87;;
63807;SDS011;49961;43.970;22.868;2022-08-04T03:52:51;3.83;;;2.70;;
63807;SDS011;49961;43.970;22.868;2022-08-04T03:54:29;4.07;;;2.70;;
63807;SDS011;49961;43.970;22.868;2022-08-04T03:58:36;6.73;;;3.17;;
63807;SDS011;49961;43.970;22.868;2022-08-04T04:05:11;4.93;;;3.17;;
63807;SDS011;49961;43.970;22.868;2022-08-04T04:09:27;7.27;;;3.10;;
63807;SDS011;49961;43.970;22.868;2022-08-04T04:12:04;5.90;;;3.23;;
63807;SDS011;49961;43.970;22.868;2022-08-04T04:20:02;9.93;;;3.80;;
63807;SDS011;49961;43.970;22.868;2022-08-04T04:21:57;4.80;;;3.43;;
63807;SDS011;49961;43.970;22.868;2022-08-04T04:32:42;9.03;;;3.33;;
63807;SDS011;49961;43.970;22.868;2022-08-04T04:34:10;5.10;;;3.30;;
63807;SDS011;49961;43.970;22.868;2022-08-04T04:40:46;6.80;;;3.40;;
63807;SDS011;49961;43.970;22.868;2022-08-04T04:44:13;5.17;;;3.03;;
63807;SDS011;49961;43.970;22.868;2022-08-04T04:45:11;5.80;;;3.47;;
63807;SDS011;49961;43.970;22.868;2022-08-04T04:47:41;6.37;;;3.30;;
63807;SDS011;49961;43.970;22.868;2022-08-04T04:48:57;8.10;;;3.50;;
63807;SDS011;49961;43.970;22.868;2022-08-04T04:50:20;13.67;;;3.40;;
63807;SDS011;49961;43.970;22.868;2022-08-04T04:51:28;6.47;;;3.33;;
63807;SDS011;49961;43.970;22.868;2022-08-04T04:55:19;5.93;;;3.50;;
63807;SDS011;49961;43.970;22.868;2022-08-04T04:57:55;8.90;;;3.43;;
63807;SDS011;49961;43.970;22.868;2022-08-04T04:58:59;7.80;;;3.40;;
63807;SDS011;49961;43.970;22.868;2022-08-04T05:00:04;6.70;;;3.80;;
63807;SDS011;49961;43.970;22.868;2022-08-04T05:02:47;4.77;;;3.60;;
63807;SDS011;49961;43.970;22.868;2022-08-04T05:06:49;4.10;;;3.17;;
63807;SDS011;49961;43.970;22.868;2022-08-04T05:14:34;7.20;;;3.10;;
63807;SDS011;49961;43.970;22.868;2022-08-04T05:15:36;6.50;;;3.40;;
63807;SDS011;49961;43.970;22.868;2022-08-04T05:16:46;5.23;;;3.40;;
63807;SDS011;49961;43.970;22.868;2022-08-04T05:17:53;6.90;;;3.30;;
63807;SDS011;49961;43.970;22.868;2022-08-04T05:18:59;11.53;;;3.80;;
63807;SDS011;49961;43.970;22.868;2022-08-04T05:20:12;13.17;;;3.27;;
63807;SDS011;49961;43.970;22.868;2022-08-04T05:21:33;9.27;;;3.70;;
63807;SDS011;49961;43.970;22.868;2022-08-04T05:24:25;7.77;;;2.97;;
63807;SDS011;49961;43.970;22.868;2022-08-04T05:25:42;5.07;;;3.10;;
63807;SDS011;49961;43.970;22.868;2022-08-04T05:26:44;4.17;;;3.17;;
63807;SDS011;49961;43.970;22.868;2022-08-04T05:27:50;5.57;;;3.33;;
63807;SDS011;49961;43.970;22.868;2022-08-04T05:29:05;5.00;;;3.00;;
63807;SDS011;49961;43.970;22.868;2022-08-04T05:30:08;7.43;;;3.50;;
63807;SDS011;49961;43.970;22.868;2022-08-04T05:31:33;6.37;;;3.33;;
63807;SDS011;49961;43.970;22.868;2022-08-04T05:32:39;7.47;;;3.43;;
63807;SDS011;49961;43.970;22.868;2022-08-04T05:33:46;5.30;;;3.63;;
63807;SDS011;49961;43.970;22.868;2022-08-04T05:34:51;6.27;;;3.33;;
63807;SDS011;49961;43.970;22.868;2022-08-04T05:36:04;6.13;;;3.10;;
63807;SDS011;49961;43.970;22.868;2022-08-04T05:37:10;6.50;;;3.30;;
63807;SDS011;49961;43.970;22.868;2022-08-04T05:38:19;5.77;;;3.43;;
63807;SDS011;49961;43.970;22.868;2022-08-04T05:39:30;5.77;;;3.10;;
63807;SDS011;49961;43.970;22.868;2022-08-04T05:40:37;4.07;;;2.70;;
63807;SDS011;49961;43.970;22.868;2022-08-04T05:41:39;5.33;;;2.70;;
63807;SDS011;49961;43.970;22.868;2022-08-04T05:42:41;4.90;;;3.07;;
63807;SDS011;49961;43.970;22.868;2022-08-04T05:43:42;7.33;;;3.00;;
63807;SDS011;49961;43.970;22.868;2022-08-04T05:44:44;7.23;;;2.60;;
63807;SDS011;49961;43.970;22.868;2022-08-04T05:45:45;8.00;;;2.60;;
63807;SDS011;49961;43.970;22.868;2022-08-04T05:46:48;9.30;;;2.90;;
63807;SDS011;49961;43.970;22.868;2022-08-04T05:47:51;9.87;;;2.83;;
63807;SDS011;49961;43.970;22.868;2022-08-04T05:48:53;5.33;;;2.80;;
63807;SDS011;49961;43.970;22.868;2022-08-04T05:49:54;9.47;;;2.77;;
63807;SDS011;49961;43.970;22.868;2022-08-04T05:50:56;5.70;;;2.73;;
63807;SDS011;49961;43.970;22.868;2022-08-04T05:52:00;4.20;;;2.80;;
63807;SDS011;49961;43.970;22.868;2022-08-04T05:53:02;5.13;;;2.70;;
63807;SDS011;49961;43.970;22.868;2022-08-04T05:54:03;6.30;;;2.80;;
63807;SDS011;49961;43.970;22.868;2022-08-04T05:55:06;7.80;;;2.73;;
63807;SDS011;49961;43.970;22.868;2022-08-04T05:56:07;5.97;;;2.40;;
63807;SDS011;49961;43.970;22.868;2022-08-04T05:57:10;4.50;;;2.30;;
63807;SDS011;49961;43.970;22.868;2022-08-04T05:58:11;6.13;;;2.03;;
63807;SDS011;49961;43.970;22.868;2022-08-04T05:59:15;7.47;;;2.13;;
63807;SDS011;49961;43.970;22.868;2022-08-04T06:00:18;6.43;;;2.13;;
63807;SDS011;49961;43.970;22.868;2022-08-04T06:01:19;4.57;;;2.30;;
63807;SDS011;49961;43.970;22.868;2022-08-04T06:02:22;4.50;;;2.00;;
63807;SDS011;49961;43.970;22.868;2022-08-04T06:03:24;4.90;;;1.77;;
63807;SDS011;49961;43.970;22.868;2022-08-04T06:04:59;4.20;;;1.77;;
63807;SDS011;49961;43.970;22.868;2022-08-04T06:05:53;3.57;;;1.97;;
63807;SDS011;49961;43.970;22.868;2022-08-04T06:06:53;5.10;;;1.80;;
63807;SDS011;49961;43.970;22.868;2022-08-04T06:07:54;5.83;;;1.83;;
63807;SDS011;49961;43.970;22.868;2022-08-04T06:08:55;5.93;;;2.03;;
63807;SDS011;49961;43.970;22.868;2022-08-04T06:09:55;7.00;;;1.90;;
63807;SDS011;49961;43.970;22.868;2022-08-04T06:10:56;5.83;;;2.00;;
63807;SDS011;49961;43.970;22.868;2022-08-04T06:12:45;7.33;;;1.93;;
63807;SDS011;49961;43.970;22.868;2022-08-04T06:13:30;6.00;;;2.10;;
63807;SDS011;49961;43.970;22.868;2022-08-04T06:14:42;7.27;;;2.00;;
63807;SDS011;49961;43.970;22.868;2022-08-04T06:15:44;9.03;;;1.90;;
63807;SDS011;49961;43.970;22.868;2022-08-04T06:16:48;4.73;;;2.03;;
63807;SDS011;49961;43.970;22.868;2022-08-04T06:17:54;5.67;;;2.00;;
63807;SDS011;49961;43.970;22.868;2022-08-04T06:19:00;3.97;;;1.70;;
63807;SDS011;49961;43.970;22.868;2022-08-04T06:20:03;4.33;;;1.90;;
63807;SDS011;49961;43.970;22.868;2022-08-04T06:21:06;6.00;;;2.00;;
63807;SDS011;49961;43.970;22.868;2022-08-04T06:22:09;5.80;;;1.90;;
63807;SDS011;49961;43.970;22.868;2022-08-04T06:23:12;4.37;;;2.07;;
63807;SDS011;49961;43.970;22.868;2022-08-04T06:24:16;5.20;;;2.00;;
63807;SDS011;49961;43.970;22.868;2022-08-04T06:25:20;6.67;;;1.97;;
63807;SDS011;49961;43.970;22.868;2022-08-04T06:26:24;7.60;;;2.17;;
63807;SDS011;49961;43.970;22.868;2022-08-04T06:27:27;4.20;;;1.80;;
63807;SDS011;49961;43.970;22.868;2022-08-04T06:28:29;6.47;;;1.80;;
63807;SDS011;49961;43.970;22.868;2022-08-04T06:29:30;5.60;;;2.00;;
63807;SDS011;49961;43.970;22.868;2022-08-04T06:30:37;3.60;;;1.80;;
63807;SDS011;49961;43.970;22.868;2022-08-04T06:31:39;7.03;;;2.13;;
63807;SDS011;49961;43.970;22.868;2022-08-04T06:32:56;6.00;;;1.90;;
63807;SDS011;49961;43.970;22.868;2022-08-04T06:34:02;5.20;;;1.90;;
63807;SDS011;49961;43.970;22.868;2022-08-04T06:35:04;7.30;;;2.03;;
63807;SDS011;49961;43.970;22.868;2022-08-04T06:36:06;5.73;;;2.00;;
63807;SDS011;49961;43.970;22.868;2022-08-04T06:37:09;6.40;;;1.90;;
63807;SDS011;49961;43.970;22.868;2022-08-04T06:38:10;6.33;;;1.90;;
63807;SDS011;49961;43.970;22.868;2022-08-04T06:39:11;2.17;;;1.77;;
63807;SDS011;49961;43.970;22.868;2022-08-04T06:40:13;4.73;;;1.80;;
63807;SDS011;49961;43.970;22.868;2022-08-04T06:41:16;4.00;;;1.90;;
63807;SDS011;49961;43.970;22.868;2022-08-04T06:42:17;5.63;;;2.10;;
63807;SDS011;49961;43.970;22.868;2022-08-04T06:43:20;3.20;;;2.07;;
63807;SDS011;49961;43.970;22.868;2022-08-04T06:44:22;4.03;;;1.90;;
63807;SDS011;49961;43.970;22.868;2022-08-04T06:45:23;2.53;;;1.80;;
63807;SDS011;49961;43.970;22.868;2022-08-04T06:46:25;3.83;;;2.23;;
63807;SDS011;49961;43.970;22.868;2022-08-04T06:47:26;5.90;;;2.03;;
63807;SDS011;49961;43.970;22.868;2022-08-04T06:48:30;4.63;;;1.90;;
63807;SDS011;49961;43.970;22.868;2022-08-04T06:49:31;3.30;;;1.70;;
63807;SDS011;49961;43.970;22.868;2022-08-04T06:50:36;2.67;;;1.83;;
63807;SDS011;49961;43.970;22.868;2022-08-04T06:51:38;4.33;;;1.87;;
63807;SDS011;49961;43.970;22.868;2022-08-04T06:52:40;4.27;;;2.00;;
63807;SDS011;49961;43.970;22.868;2022-08-04T06:53:43;5.27;;;2.00;;
63807;SDS011;49961;43.970;22.868;2022-08-04T06:54:44;5.47;;;2.03;;
63807;SDS011;49961;43.970;22.868;2022-08-04T06:55:49;5.03;;;1.90;;
63807;SDS011;49961;43.970;22.868;2022-08-04T06:56:51;8.77;;;2.20;;
63807;SDS011;49961;43.970;22.868;2022-08-04T06:57:53;4.13;;;2.20;;
63807;SDS011;49961;43.970;22.868;2022-08-04T06:58:55;6.27;;;2.03;;
63807;SDS011;49961;43.970;22.868;2022-08-04T07:00:04;5.00;;;2.00;;
63807;SDS011;49961;43.970;22.868;2022-08-04T07:01:14;4.00;;;1.60;;
63807;SDS011;49961;43.970;22.868;2022-08-04T07:02:19;5.10;;;2.07;;
63807;SDS011;49961;43.970;22.868;2022-08-04T07:03:23;7.83;;;1.97;;
63807;SDS011;49961;43.970;22.868;2022-08-04T07:04:23;7.97;;;2.33;;
63807;SDS011;49961;43.970;22.868;2022-08-04T07:05:24;2.80;;;1.87;;
63807;SDS011;49961;43.970;22.868;2022-08-04T07:06:25;4.23;;;2.20;;
63807;SDS011;49961;43.970;22.868;2022-08-04T07:07:26;4.18;;;1.90;;
63807;SDS011;49961;43.970;22.868;2022-08-04T07:08:27;5.53;;;2.10;;
63807;SDS011;49961;43.970;22.868;2022-08-04T07:09:28;4.30;;;1.80;;
63807;SDS011;49961;43.970;22.868;2022-08-04T07:10:30;6.35;;;1.73;;
63807;SDS011;49961;43.970;22.868;2022-08-04T07:11:31;5.32;;;2.00;;
63807;SDS011;49961;43.970;22.868;2022-08-04T07:12:32;3.45;;;1.85;;
63807;SDS011;49961;43.970;22.868;2022-08-04T07:13:33;6.47;;;2.08;;
63807;SDS011;49961;43.970;22.868;2022-08-04T07:14:35;2.38;;;1.90;;
63807;SDS011;49961;43.970;22.868;2022-08-04T07:15:36;5.57;;;2.10;;
63807;SDS011;49961;43.970;22.868;2022-08-04T07:16:40;5.38;;;2.05;;
63807;SDS011;49961;43.970;22.868;2022-08-04T07:17:41;3.33;;;1.80;;
63807;SDS011;49961;43.970;22.868;2022-08-04T07:18:43;5.03;;;2.10;;
63807;SDS011;49961;43.970;22.868;2022-08-04T07:19:43;2.95;;;1.70;;
63807;SDS011;49961;43.970;22.868;2022-08-04T07:20:44;4.50;;;1.90;;
63807;SDS011;49961;43.970;22.868;2022-08-04T07:21:45;3.88;;;1.90;;
63807;SDS011;49961;43.970;22.868;2022-08-04T07:22:47;6.75;;;2.03;;
63807;SDS011;49961;43.970;22.868;2022-08-04T07:23:48;3.65;;;1.80;;
63807;SDS011;49961;43.970;22.868;2022-08-04T07:24:52;5.00;;;1.90;;
63807;SDS011;49961;43.970;22.868;2022-08-04T07:25:54;4.53;;;2.13;;
63807;SDS011;49961;43.970;22.868;2022-08-04T07:26:56;4.03;;;1.88;;
63807;SDS011;49961;43.970;22.868;2022-08-04T07:27:57;4.65;;;1.98;;
63807;SDS011;49961;43.970;22.868;2022-08-04T07:28:58;9.70;;;2.05;;
63807;SDS011;49961;43.970;22.868;2022-08-04T07:29:59;3.65;;;2.08;;
63807;SDS011;49961;43.970;22.868;2022-08-04T07:31:00;7.25;;;2.20;;
63807;SDS011;49961;43.970;22.868;2022-08-04T07:32:02;2.53;;;1.90;;
63807;SDS011;49961;43.970;22.868;2022-08-04T07:33:03;5.72;;;1.95;;
63807;SDS011;49961;43.970;22.868;2022-08-04T07:34:05;4.43;;;1.83;;
63807;SDS011;49961;43.970;22.868;2022-08-04T07:35:07;4.78;;;2.17;;
63807;SDS011;49961;43.970;22.868;2022-08-04T07:36:08;3.65;;;2.00;;
63807;SDS011;49961;43.970;22.868;2022-08-04T07:37:09;5.40;;;1.75;;
63807;SDS011;49961;43.970;22.868;2022-08-04T07:38:09;4.95;;;1.80;;
63807;SDS011;49961;43.970;22.868;2022-08-04T07:39:11;5.32;;;1.92;;
63807;SDS011;49961;43.970;22.868;2022-08-04T07:40:12;3.05;;;1.90;;
63807;SDS011;49961;43.970;22.868;2022-08-04T07:41:13;5.53;;;2.08;;
63807;SDS011;49961;43.970;22.868;2022-08-04T07:42:19;5.57;;;1.95;;
63807;SDS011;49961;43.970;22.868;2022-08-04T07:43:20;5.85;;;2.05;;
63807;SDS011;49961;43.970;22.868;2022-08-04T07:44:21;6.00;;;2.00;;
63807;SDS011;49961;43.970;22.868;2022-08-04T07:45:22;3.75;;;2.00;;
63807;SDS011;49961;43.970;22.868;2022-08-04T07:46:24;4.10;;;1.83;;
63807;SDS011;49961;43.970;22.868;2022-08-04T07:47:25;5.75;;;1.80;;
63807;SDS011;49961;43.970;22.868;2022-08-04T07:48:26;4.40;;;2.10;;
63807;SDS011;49961;43.970;22.868;2022-08-04T07:49:27;4.10;;;1.80;;
63807;SDS011;49961;43.970;22.868;2022-08-04T07:50:28;4.65;;;1.80;;
63807;SDS011;49961;43.970;22.868;2022-08-04T07:51:29;4.95;;;1.92;;
63807;SDS011;49961;43.970;22.868;2022-08-04T07:52:30;3.47;;;1.70;;
63807;SDS011;49961;43.970;22.868;2022-08-04T07:53:31;6.47;;;2.10;;
63807;SDS011;49961;43.970;22.868;2022-08-04T07:54:33;6.78;;;1.95;;
63807;SDS011;49961;43.970;22.868;2022-08-04T07:55:34;8.13;;;2.10;;
63807;SDS011;49961;43.970;22.868;2022-08-04T07:56:35;11.15;;;2.25;;
63807;SDS011;49961;43.970;22.868;2022-08-04T07:57:38;6.85;;;2.10;;
63807;SDS011;49961;43.970;22.868;2022-08-04T07:58:39;4.18;;;2.15;;
63807;SDS011;49961;43.970;22.868;2022-08-04T07:59:40;5.82;;;1.90;;
63807;SDS011;49961;43.970;22.868;2022-08-04T08:00:42;5.97;;;2.00;;
63807;SDS011;49961;43.970;22.868;2022-08-04T08:01:45;3.73;;;2.00;;
63807;SDS011;49961;43.970;22.868;2022-08-04T08:02:48;3.97;;;1.70;;
63807;SDS011;49961;43.970;22.868;2022-08-04T08:03:50;5.55;;;2.00;;
63807;SDS011;49961;43.970;22.868;2022-08-04T08:04:52;5.38;;;2.05;;
63807;SDS011;49961;43.970;22.868;2022-08-04T08:05:53;6.57;;;2.33;;
63807;SDS011;49961;43.970;22.868;2022-08-04T08:06:54;4.32;;;1.95;;
63807;SDS011;49961;43.970;22.868;2022-08-04T08:07:57;8.63;;;1.77;;
63807;SDS011;49961;43.970;22.868;2022-08-04T08:08:58;7.38;;;1.90;;
63807;SDS011;49961;43.970;22.868;2022-08-04T08:10:00;2.95;;;1.77;;
63807;SDS011;49961;43.970;22.868;2022-08-04T08:11:00;3.67;;;2.15;;
63807;SDS011;49961;43.970;22.868;2022-08-04T08:12:01;3.95;;;1.73;;
63807;SDS011;49961;43.970;22.868;2022-08-04T08:13:02;5.40;;;1.88;;
63807;SDS011;49961;43.970;22.868;2022-08-04T08:14:02;5.00;;;1.90;;
63807;SDS011;49961;43.970;22.868;2022-08-04T08:15:05;3.42;;;2.10;;
63807;SDS011;49961;43.970;22.868;2022-08-04T08:16:07;4.47;;;1.75;;
63807;SDS011;49961;43.970;22.868;2022-08-04T08:17:07;5.18;;;2.00;;
63807;SDS011;49961;43.970;22.868;2022-08-04T08:18:08;4.07;;;1.92;;
63807;SDS011;49961;43.970;22.868;2022-08-04T08:19:08;6.50;;;2.00;;
63807;SDS011;49961;43.970;22.868;2022-08-04T08:20:10;2.75;;;1.92;;
63807;SDS011;49961;43.970;22.868;2022-08-04T08:21:10;6.15;;;1.80;;
63807;SDS011;49961;43.970;22.868;2022-08-04T08:22:11;2.75;;;1.90;;
63807;SDS011;49961;43.970;22.868;2022-08-04T08:23:12;5.15;;;1.92;;
63807;SDS011;49961;43.970;22.868;2022-08-04T08:24:13;4.95;;;2.00;;
63807;SDS011;49961;43.970;22.868;2022-08-04T08:25:13;6.32;;;2.00;;
63807;SDS011;49961;43.970;22.868;2022-08-04T08:26:14;4.68;;;2.00;;
63807;SDS011;49961;43.970;22.868;2022-08-04T08:27:15;4.15;;;1.70;;
63807;SDS011;49961;43.970;22.868;2022-08-04T08:28:15;3.38;;;1.80;;
63807;SDS011;49961;43.970;22.868;2022-08-04T08:29:16;3.03;;;1.67;;
63807;SDS011;49961;43.970;22.868;2022-08-04T08:30:18;5.07;;;1.90;;
63807;SDS011;49961;43.970;22.868;2022-08-04T08:31:19;3.33;;;1.80;;
63807;SDS011;49961;43.970;22.868;2022-08-04T08:32:19;7.10;;;2.13;;
63807;SDS011;49961;43.970;22.868;2022-08-04T08:33:20;3.95;;;1.95;;
63807;SDS011;49961;43.970;22.868;2022-08-04T08:34:22;3.28;;;1.80;;
63807;SDS011;49961;43.970;22.868;2022-08-04T08:35:22;8.18;;;1.90;;
63807;SDS011;49961;43.970;22.868;2022-08-04T08:36:27;5.97;;;2.00;;
63807;SDS011;49961;43.970;22.868;2022-08-04T08:38:48;4.47;;;2.17;;
63807;SDS011;49961;43.970;22.868;2022-08-04T08:44:08;3.70;;;1.77;;
63807;SDS011;49961;43.970;22.868;2022-08-04T08:49:43;4.15;;;2.00;;
63807;SDS011;49961;43.970;22.868;2022-08-04T08:54:41;3.53;;;1.77;;
63807;SDS011;49961;43.970;22.868;2022-08-04T09:00:19;3.00;;;1.75;;
63807;SDS011;49961;43.970;22.868;2022-08-04T09:06:46;5.28;;;1.88;;
63807;SDS011;49961;43.970;22.868;2022-08-04T09:07:59;6.65;;;1.98;;
63807;SDS011;49961;43.970;22.868;2022-08-04T09:10:37;4.80;;;1.50;;
63807;SDS011;49961;43.970;22.868;2022-08-04T09:17:26;6.28;;;1.85;;